createdAt,value
2018-08-04T00:02:17.741Z,101437.13
2018-08-04T00:04:46.053Z,101444.86
2018-08-04T00:07:14.341Z,101443.67
2018-08-04T00:09:42.445Z,101440.60
2018-08-04T00:12:11.308Z,101436.58
2018-08-04T00:14:39.985Z,101432.34
2018-08-04T00:17:08.653Z,101435.75
2018-08-04T00:19:37.374Z,101429.56
2018-08-04T00:22:06.227Z,101427.69
2018-08-04T00:24:34.649Z,101426.51
2018-08-04T00:27:02.933Z,101422.20
2018-08-04T00:29:31.373Z,101418.24
2018-08-04T00:31:59.825Z,101413.91
2018-08-04T00:34:28.625Z,101418.88
2018-08-04T00:36:57.009Z,101415.28
2018-08-04T00:39:25.557Z,101427.34
2018-08-04T00:41:54.437Z,101420.26
2018-08-04T00:44:23.061Z,101427.45
2018-08-04T00:46:51.959Z,101428.02
2018-08-04T00:49:20.733Z,101430.44
2018-08-04T00:51:49.313Z,101428.45
2018-08-04T00:54:18.126Z,101428.22
2018-08-04T00:56:46.245Z,101419.81
2018-08-04T00:59:14.705Z,101418.23
2018-08-04T01:01:44.149Z,101418.20
2018-08-04T01:04:12.589Z,101410.98
2018-08-04T01:06:40.991Z,101414.58
2018-08-04T01:09:10.261Z,101414.91
2018-08-04T01:11:38.771Z,101418.81
2018-08-04T01:14:08.509Z,101420.73
2018-08-04T01:16:37.164Z,101419.52
2018-08-04T01:19:05.840Z,101431.24
2018-08-04T01:21:34.429Z,101430.27
2018-08-04T01:24:02.901Z,101428.55
2018-08-04T01:26:31.285Z,101427.67
2018-08-04T01:28:59.385Z,101416.02
2018-08-04T01:31:28.150Z,101413.70
2018-08-04T01:33:56.725Z,101417.05
2018-08-04T01:36:25.145Z,101418.70
2018-08-04T01:38:53.257Z,101411.84
2018-08-04T01:41:22.001Z,101414.52
2018-08-04T01:43:50.246Z,101412.87
2018-08-04T01:46:18.693Z,101408.58
2018-08-04T01:48:46.874Z,101416.98
2018-08-04T01:51:15.875Z,101406.95
2018-08-04T01:53:44.591Z,101409.34
2018-08-04T01:56:13.449Z,101401.09
2018-08-04T01:58:42.160Z,101407.77
2018-08-04T02:01:10.742Z,101404.85
2018-08-04T02:03:39.174Z,101407.10
2018-08-04T02:06:08.982Z,101411.23
2018-08-04T02:08:37.185Z,101409.86
2018-08-04T02:11:05.341Z,101412.07
2018-08-04T02:13:33.964Z,101401.59
2018-08-04T02:16:02.553Z,101402.13
2018-08-04T02:18:31.009Z,101395.47
2018-08-04T02:20:59.525Z,101393.61
2018-08-04T02:23:27.657Z,101394.48
2018-08-04T02:25:55.773Z,101395.12
2018-08-04T02:28:25.045Z,101386.73
2018-08-04T02:30:53.637Z,101382.66
2018-08-04T02:33:22.101Z,101387.52
2018-08-04T02:35:50.340Z,101379.65
2018-08-04T02:38:19.035Z,101376.90
2018-08-04T02:40:47.603Z,101380.97
2018-08-04T02:43:16.205Z,101377.86
2018-08-04T02:45:44.878Z,101383.30
2018-08-04T02:48:13.838Z,101369.60
2018-08-04T02:50:42.244Z,101379.69
2018-08-04T02:53:10.892Z,101371.59
2018-08-04T02:55:39.605Z,101364.58
2018-08-04T02:58:08.925Z,101366.99
2018-08-04T03:00:37.362Z,101363.90
2018-08-04T03:03:05.889Z,101360.30
2018-08-04T03:05:34.582Z,101362.38
2018-08-04T03:08:02.954Z,101362.75
2018-08-04T03:10:31.729Z,101368.81
2018-08-04T03:13:00.326Z,101363.24
2018-08-04T03:15:28.425Z,101358.66
2018-08-04T03:17:56.873Z,101358.98
2018-08-04T03:20:25.428Z,101358.65
2018-08-04T03:22:54.082Z,101362.06
2018-08-04T03:25:23.789Z,101359.24
2018-08-04T03:27:52.882Z,101361.63
2018-08-04T03:30:21.225Z,101361.47
2018-08-04T03:32:49.457Z,101364.24
2018-08-04T03:35:18.328Z,101361.69
2018-08-04T03:37:46.682Z,101365.78
2018-08-04T03:40:14.789Z,101362.52
2018-08-04T03:42:43.264Z,101371.89
2018-08-04T03:45:11.994Z,101371.73
2018-08-04T03:47:40.466Z,101373.77
2018-08-04T03:50:18.477Z,101363.97
2018-08-04T03:52:47.181Z,101368.20
2018-08-04T03:55:16.078Z,101366.81
2018-08-04T03:57:44.810Z,101362.50
2018-08-04T04:00:13.506Z,101363.70
2018-08-04T04:02:41.632Z,101363.20
2018-08-04T04:05:10.134Z,101370.92
2018-08-04T04:07:39.033Z,101368.70
2018-08-04T04:10:07.145Z,101365.62
2018-08-04T04:12:35.532Z,101369.05
2018-08-04T04:15:04.365Z,101371.96
2018-08-04T04:17:44.134Z,101368.87
2018-08-04T04:20:13.145Z,101374.03
2018-08-04T04:22:42.021Z,101378.98
2018-08-04T04:25:10.666Z,101373.69
2018-08-04T04:27:39.110Z,101367.86
2018-08-04T04:30:07.841Z,101379.83
2018-08-04T04:32:35.942Z,101392.98
2018-08-04T04:35:04.081Z,101393.69
2018-08-04T04:37:32.537Z,101389.94
2018-08-04T04:40:01.680Z,101401.41
2018-08-04T04:42:30.149Z,101401.44
2018-08-04T04:44:58.265Z,101396.88
2018-08-04T04:47:27.013Z,101396.02
2018-08-04T04:49:55.453Z,101391.91
2018-08-04T04:52:24.517Z,101384.38
2018-08-04T04:54:52.717Z,101384.19
2018-08-04T04:57:21.215Z,101381.98
2018-08-04T04:59:49.952Z,101379.59
2018-08-04T05:02:18.394Z,101376.33
2018-08-04T05:04:47.149Z,101380.60
2018-08-04T05:07:15.597Z,101396.20
2018-08-04T05:09:43.791Z,101398.27
2018-08-04T05:12:12.284Z,101394.64
2018-08-04T05:14:40.918Z,101401.30
2018-08-04T05:17:09.466Z,101410.87
2018-08-04T05:19:38.009Z,101411.19
2018-08-04T05:22:06.402Z,101406.94
2018-08-04T05:24:35.001Z,101417.36
2018-08-04T05:27:03.341Z,101421.30
2018-08-04T05:29:31.838Z,101415.15
2018-08-04T05:32:00.312Z,101405.38
2018-08-04T05:34:29.165Z,101400.27
2018-08-04T05:36:57.653Z,101399.59
2018-08-04T05:39:26.436Z,101400.25
2018-08-04T05:41:55.252Z,101401.30
2018-08-04T05:44:24.183Z,101396.70
2018-08-04T05:46:52.628Z,101398.23
2018-08-04T05:49:21.393Z,101392.28
2018-08-04T05:51:50.121Z,101394.50
2018-08-04T05:54:19.013Z,101390.78
2018-08-04T05:56:47.132Z,101389.24
2018-08-04T05:59:15.601Z,101391.98
2018-08-04T06:01:44.506Z,101397.46
2018-08-04T06:04:13.297Z,101402.25
2018-08-04T06:06:41.425Z,101396.96
2018-08-04T06:09:11.186Z,101395.70
2018-08-04T06:11:40.206Z,101397.91
2018-08-04T06:14:09.382Z,101408.30
2018-08-04T06:16:37.733Z,101401.74
2018-08-04T06:19:06.226Z,101400.25
2018-08-04T06:21:34.681Z,101396.86
2018-08-04T06:24:02.877Z,101404.16
2018-08-04T06:26:31.569Z,101406.48
2018-08-04T06:28:59.962Z,101404.84
2018-08-04T06:31:28.442Z,101412.67
2018-08-04T06:33:57.077Z,101413.44
2018-08-04T06:36:25.606Z,101421.62
2018-08-04T06:38:54.136Z,101420.63
2018-08-04T06:41:22.593Z,101423.20
2018-08-04T06:43:51.005Z,101421.28
2018-08-04T06:46:19.121Z,101424.66
2018-08-04T06:48:47.761Z,101418.55
2018-08-04T06:51:16.171Z,101422.89
2018-08-04T06:53:44.624Z,101427.39
2018-08-04T06:56:13.639Z,101422.24
2018-08-04T06:58:42.309Z,101431.31
2018-08-04T07:01:10.749Z,101429.95
2018-08-04T07:03:39.209Z,101428.02
2018-08-04T07:06:07.661Z,101427.83
2018-08-04T07:08:36.809Z,101431.38
2018-08-04T07:11:05.437Z,101429.03
2018-08-04T07:13:33.951Z,101431.05
2018-08-04T07:16:02.081Z,101430.23
2018-08-04T07:18:30.512Z,101424.42
2018-08-04T07:20:58.976Z,101426.25
2018-08-04T07:23:27.712Z,101428.50
2018-08-04T07:25:56.309Z,101430.61
2018-08-04T07:28:24.429Z,101431.09
2018-08-04T07:30:53.114Z,101432.64
2018-08-04T07:33:22.050Z,101437.17
2018-08-04T07:35:50.165Z,101438.10
2018-08-04T07:38:18.817Z,101444.50
2018-08-04T07:40:47.342Z,101441.80
2018-08-04T07:43:15.794Z,101439.36
2018-08-04T07:45:44.882Z,101443.30
2018-08-04T07:48:13.661Z,101443.87
2018-08-04T07:50:42.165Z,101446.96
2018-08-04T07:53:10.884Z,101451.11
2018-08-04T07:55:39.513Z,101440.05
2018-08-04T08:17:37.876Z,101453.47
2018-08-04T08:20:06.365Z,101453.14
2018-08-04T08:22:37.177Z,101447.84
2018-08-04T08:25:05.894Z,101447.20
2018-08-04T08:27:34.520Z,101444.33
2018-08-04T08:30:03.141Z,101444.31
2018-08-04T08:32:31.530Z,101434.14
2018-08-04T08:35:00.098Z,101437.49
2018-08-04T08:37:28.569Z,101440.34
2018-08-04T08:39:57.065Z,101436.61
2018-08-04T08:42:25.526Z,101440.46
2018-08-04T08:44:53.993Z,101431.40
2018-08-04T08:47:22.406Z,101431.80
2018-08-04T08:49:51.277Z,101432.09
2018-08-04T08:52:19.638Z,101430.32
2018-08-04T08:54:48.485Z,101428.80
2018-08-04T08:57:17.205Z,101432.46
2018-08-04T08:59:45.697Z,101437.41
2018-08-04T09:02:14.669Z,101434.55
2018-08-04T09:07:33.492Z,101428.44
2018-08-04T09:10:02.040Z,101442.98
2018-08-04T09:12:30.676Z,101438.19
2018-08-04T09:14:59.344Z,101433.63
2018-08-04T09:17:28.078Z,101430.28
2018-08-04T09:19:56.517Z,101422.34
2018-08-04T09:22:25.972Z,101424.85
2018-08-04T09:24:55.041Z,101424.01
2018-08-04T09:27:23.771Z,101421.28
2018-08-04T09:29:52.464Z,101421.84
2018-08-04T09:32:20.736Z,101424.80
2018-08-04T09:34:48.858Z,101435.33
2018-08-04T09:37:17.815Z,101436.37
2018-08-04T09:39:46.252Z,101434.19
2018-08-04T09:42:14.939Z,101426.17
2018-08-04T09:44:43.402Z,101434.55
2018-08-04T09:47:12.009Z,101430.93
2018-08-04T09:49:40.324Z,101424.06
2018-08-04T09:52:09.940Z,101425.62
2018-08-04T09:54:38.616Z,101419.19
2018-08-04T09:57:06.771Z,101425.20
2018-08-04T09:59:35.472Z,101421.38
2018-08-04T10:02:09.284Z,101428.34
2018-08-04T10:04:37.969Z,101423.90
2018-08-04T10:07:06.815Z,101424.89
2018-08-04T10:09:35.257Z,101422.87
2018-08-04T10:12:03.601Z,101420.89
2018-08-04T10:14:32.623Z,101420.59
2018-08-04T10:17:00.976Z,101419.20
2018-08-04T10:19:29.684Z,101420.13
2018-08-04T10:21:57.839Z,101418.74
2018-08-04T10:24:26.387Z,101416.61
2018-08-04T10:26:55.267Z,101416.23
2018-08-04T10:29:23.958Z,101410.39
2018-08-04T10:31:52.108Z,101406.11
2018-08-04T10:34:21.021Z,101404.28
2018-08-04T10:36:49.480Z,101404.45
2018-08-04T10:39:17.880Z,101401.75
2018-08-04T10:41:46.005Z,101408.27
2018-08-04T10:44:14.416Z,101403.47
2018-08-04T10:46:42.516Z,101403.28
2018-08-04T10:49:10.789Z,101390.27
2018-08-04T10:51:39.313Z,101386.57
2018-08-04T10:54:08.043Z,101388.46
2018-08-04T10:56:36.733Z,101390.27
2018-08-04T10:59:05.104Z,101385.83
2018-08-04T11:01:33.929Z,101382.92
2018-08-04T11:04:02.636Z,101388.16
2018-08-04T11:06:30.740Z,101388.38
2018-08-04T11:08:58.865Z,101388.20
2018-08-04T11:11:27.497Z,101373.57
2018-08-04T11:13:55.859Z,101380.66
2018-08-04T11:16:24.293Z,101372.13
2018-08-04T11:18:52.955Z,101371.32
2018-08-04T11:21:21.621Z,101375.73
2018-08-04T11:23:50.108Z,101374.39
2018-08-04T11:26:19.072Z,101372.27
2018-08-04T11:28:47.195Z,101369.03
2018-08-04T11:31:15.575Z,101373.54
2018-08-04T11:33:44.227Z,101365.77
2018-08-04T11:36:12.663Z,101359.92
2018-08-04T11:38:41.293Z,101362.06
2018-08-04T11:41:10.265Z,101366.69
2018-08-04T11:43:39.020Z,101362.97
2018-08-04T11:46:07.696Z,101358.08
2018-08-04T11:48:36.376Z,101363.56
2018-08-04T11:51:04.933Z,101360.77
2018-08-04T11:53:33.607Z,101360.15
2018-08-04T11:56:02.288Z,101358.14
2018-08-04T11:58:31.279Z,101357.27
2018-08-04T12:00:59.804Z,101355.63
2018-08-04T12:03:28.048Z,101353.24
2018-08-04T12:05:56.501Z,101360.36
2018-08-04T12:08:25.485Z,101357.54
2018-08-04T12:10:53.905Z,101346.51
2018-08-04T12:13:22.636Z,101351.87
2018-08-04T12:15:51.053Z,101350.61
2018-08-04T12:18:19.496Z,101355.45
2018-08-04T12:20:47.725Z,101339.98
2018-08-04T12:23:16.295Z,101343.70
2018-08-04T12:25:45.376Z,101341.13
2018-08-04T12:28:14.260Z,101327.89
2018-08-04T12:30:42.695Z,101335.29
2018-08-04T12:33:11.469Z,101339.13
2018-08-04T12:35:39.717Z,101339.52
2018-08-04T12:38:08.161Z,101329.39
2018-08-04T12:40:37.122Z,101328.13
2018-08-04T12:43:45.004Z,101325.36
2018-08-04T12:46:13.637Z,101328.50
2018-08-04T12:48:42.187Z,101322.77
2018-08-04T12:51:11.022Z,101324.72
2018-08-04T12:53:39.355Z,101327.45
2018-08-04T12:56:08.079Z,101322.50
2018-08-04T12:58:36.777Z,101319.12
2018-08-04T13:01:05.147Z,101314.47
2018-08-04T13:03:33.576Z,101311.28
2018-08-04T13:06:01.775Z,101309.52
2018-08-04T13:08:30.635Z,101308.52
2018-08-04T13:10:58.899Z,101306.52
2018-08-04T13:13:27.571Z,101308.83
2018-08-04T13:15:55.808Z,101310.38
2018-08-04T13:18:24.444Z,101313.31
2018-08-04T13:20:53.416Z,101311.92
2018-08-04T13:23:21.514Z,101313.61
2018-08-04T13:25:49.895Z,101307.41
2018-08-04T13:28:19.011Z,101310.42
2018-08-04T13:30:47.615Z,101309.48
2018-08-04T13:33:16.152Z,101302.13
2018-08-04T13:35:44.477Z,101314.56
2018-08-04T13:38:12.909Z,101312.50
2018-08-04T13:40:41.395Z,101313.86
2018-08-04T13:43:10.280Z,101311.16
2018-08-04T13:45:38.716Z,101302.02
2018-08-04T13:48:07.388Z,101303.20
2018-08-04T13:50:35.507Z,101299.06
2018-08-04T13:53:04.616Z,101295.77
2018-08-04T13:55:33.521Z,101290.63
2018-08-04T13:58:02.150Z,101292.31
2018-08-04T14:00:31.378Z,101295.31
2018-08-04T14:03:00.153Z,101289.45
2018-08-04T14:05:28.470Z,101284.67
2018-08-04T14:07:57.387Z,101276.77
2018-08-04T14:10:26.280Z,101280.17
2018-08-04T14:12:54.961Z,101274.48
2018-08-04T14:15:23.673Z,101277.73
2018-08-04T14:17:52.131Z,101278.64
2018-08-04T14:20:20.899Z,101278.14
2018-08-04T14:22:49.620Z,101275.91
2018-08-04T14:25:18.695Z,101282.48
2018-08-04T14:27:47.145Z,101287.38
2018-08-04T14:30:15.651Z,101273.36
2018-08-04T14:32:44.500Z,101271.56
2018-08-04T14:35:13.444Z,101274.41
2018-08-04T14:37:42.112Z,101281.73
2018-08-04T14:40:10.525Z,101275.35
2018-08-04T14:42:38.958Z,101271.50
2018-08-04T14:45:07.576Z,101269.13
2018-08-04T14:47:36.180Z,101273.63
2018-08-04T14:50:04.597Z,101273.48
2018-08-04T14:52:33.023Z,101267.48
2018-08-04T14:55:01.493Z,101269.62
2018-08-04T14:57:30.017Z,101270.77
2018-08-04T14:59:58.309Z,101266.34
2018-08-04T15:02:26.875Z,101261.70
2018-08-04T15:04:55.914Z,101260.19
2018-08-04T15:07:24.452Z,101263.34
2018-08-04T15:09:53.441Z,101261.22
2018-08-04T15:12:24.066Z,101259.22
2018-08-04T15:14:52.527Z,101254.22
2018-08-04T15:17:21.042Z,101258.91
2018-08-04T15:19:49.560Z,101260.19
2018-08-04T15:22:18.291Z,101257.42
2018-08-04T15:24:46.724Z,101259.68
2018-08-04T15:27:15.365Z,101256.86
2018-08-04T15:29:44.053Z,101241.83
2018-08-04T15:32:12.784Z,101249.05
2018-08-04T15:34:41.189Z,101245.29
2018-08-04T15:37:10.917Z,101243.34
2018-08-04T15:39:39.641Z,101244.42
2018-08-04T15:42:07.761Z,101248.00
2018-08-04T15:44:36.140Z,101248.92
2018-08-04T15:47:04.753Z,101243.96
2018-08-04T15:49:33.199Z,101236.16
2018-08-04T15:52:01.729Z,101245.47
2018-08-04T15:54:29.831Z,101238.10
2018-08-04T15:56:58.378Z,101242.53
2018-08-04T15:59:26.511Z,101245.04
2018-08-04T16:01:54.956Z,101243.64
2018-08-04T16:04:23.529Z,101240.78
2018-08-04T16:06:51.964Z,101239.86
2018-08-04T16:09:20.356Z,101245.58
2018-08-04T16:11:48.668Z,101244.56
2018-08-04T16:14:17.353Z,101252.30
2018-08-04T16:16:45.827Z,101249.94
2018-08-04T16:19:14.952Z,101257.36
2018-08-04T16:21:43.457Z,101250.93
2018-08-04T16:24:11.943Z,101255.21
2018-08-04T16:26:40.968Z,101256.17
2018-08-04T16:29:10.668Z,101254.95
2018-08-04T16:31:39.609Z,101267.38
2018-08-04T16:34:08.040Z,101269.84
2018-08-04T16:36:36.501Z,101261.64
2018-08-04T16:39:07.633Z,101267.27
2018-08-04T16:41:35.762Z,101272.97
2018-08-04T16:44:04.069Z,101267.01
2018-08-04T16:46:32.665Z,101271.11
2018-08-04T16:49:00.994Z,101276.98
2018-08-04T16:51:29.092Z,101274.87
2018-08-04T16:53:57.508Z,101270.14
2018-08-04T16:56:26.057Z,101285.42
2018-08-04T16:58:54.808Z,101286.46
2018-08-04T17:01:23.515Z,101279.50
2018-08-04T17:03:51.964Z,101279.45
2018-08-04T17:06:20.960Z,101280.25
2018-08-04T17:08:49.325Z,101279.16
2018-08-04T17:11:18.349Z,101279.81
2018-08-04T17:13:46.971Z,101285.97
2018-08-04T17:16:15.552Z,101293.44
2018-08-04T17:18:44.004Z,101293.16
2018-08-04T17:21:13.017Z,101300.63
2018-08-04T17:23:41.484Z,101304.30
2018-08-04T17:26:11.400Z,101300.33
2018-08-04T17:28:39.951Z,101310.71
2018-08-04T17:31:08.045Z,101313.02
2018-08-04T17:33:36.502Z,101317.06
2018-08-04T17:36:05.132Z,101313.45
2018-08-04T17:38:33.253Z,101314.72
2018-08-04T17:41:01.916Z,101322.78
2018-08-04T17:43:30.616Z,101316.36
2018-08-04T17:45:59.317Z,101316.62
2018-08-04T17:48:28.296Z,101326.06
2018-08-04T17:50:57.209Z,101322.94
2018-08-04T17:53:25.815Z,101330.28
2018-08-04T17:55:54.249Z,101331.00
2018-08-04T17:58:22.656Z,101335.86
2018-08-04T18:00:51.316Z,101343.14
2018-08-04T18:03:19.721Z,101347.69
2018-08-04T18:05:47.820Z,101353.94
2018-08-04T18:08:16.747Z,101353.16
2018-08-04T18:10:44.836Z,101345.63
2018-08-04T18:13:13.289Z,101351.02
2018-08-04T18:15:42.048Z,101341.38
2018-08-04T18:18:11.004Z,101345.78
2018-08-04T18:20:39.443Z,101343.98
2018-08-04T18:23:07.763Z,101346.76
2018-08-04T18:25:36.441Z,101349.63
2018-08-04T18:28:05.157Z,101358.28
2018-08-04T18:30:34.016Z,101351.78
2018-08-04T18:33:02.124Z,101355.23
2018-08-04T18:35:30.464Z,101357.49
2018-08-04T18:37:58.940Z,101362.38
2018-08-04T18:40:28.077Z,101367.08
2018-08-04T18:42:56.420Z,101368.23
2018-08-04T18:45:24.999Z,101368.34
2018-08-04T18:47:53.468Z,101372.37
2018-08-04T18:50:22.196Z,101373.95
2018-08-04T18:52:50.937Z,101384.69
2018-08-04T18:55:19.241Z,101386.30
2018-08-04T18:57:47.700Z,101391.92
2018-08-04T19:00:16.309Z,101399.75
2018-08-04T19:02:44.401Z,101401.61
2018-08-04T19:05:14.176Z,101402.00
2018-08-04T19:07:42.600Z,101409.20
2018-08-04T19:10:11.464Z,101410.56
2018-08-04T19:12:40.132Z,101425.76
2018-08-04T19:15:08.273Z,101426.86
2018-08-04T19:17:36.677Z,101432.81
2018-08-04T19:20:05.413Z,101437.44
2018-08-04T19:22:34.124Z,101438.70
2018-08-04T19:25:02.241Z,101445.88
2018-08-04T19:27:30.349Z,101445.40
2018-08-04T19:29:59.117Z,101450.48
2018-08-04T19:32:27.836Z,101468.78
2018-08-04T19:34:55.960Z,101467.26
2018-08-04T19:37:24.466Z,101463.13
2018-08-04T19:39:52.881Z,101467.39
2018-08-04T19:42:21.593Z,101478.22
2018-08-04T19:44:50.205Z,101473.36
2018-08-04T19:47:18.602Z,101478.68
2018-08-04T19:49:46.908Z,101478.76
2018-08-04T19:52:15.468Z,101484.31
2018-08-04T19:54:44.403Z,101478.80
2018-08-04T19:57:13.360Z,101478.09
2018-08-04T19:59:42.050Z,101476.04
2018-08-04T20:02:11.459Z,101485.06
2018-08-04T20:04:40.213Z,101491.15
2018-08-04T20:07:08.309Z,101490.55
2018-08-04T20:09:36.957Z,101500.78
2018-08-04T20:12:06.308Z,101497.35
2018-08-04T20:14:34.764Z,101500.89
2018-08-04T20:17:03.260Z,101507.14
2018-08-04T20:19:31.432Z,101507.00
2018-08-04T20:21:59.769Z,101501.45
2018-08-04T20:24:28.173Z,101502.59
2018-08-04T20:26:56.605Z,101501.95
2018-08-04T20:29:25.477Z,101495.52
2018-08-04T20:31:54.451Z,101503.53
2018-08-04T20:34:23.132Z,101500.84
2018-08-04T20:36:51.571Z,101502.58
2018-08-04T20:39:20.561Z,101515.67
2018-08-04T20:41:48.972Z,101520.56
2018-08-04T20:44:17.587Z,101519.06
2018-08-04T20:46:46.449Z,101523.11
2018-08-04T20:49:15.364Z,101517.28
2018-08-04T20:51:43.787Z,101527.31
2018-08-04T20:54:12.605Z,101528.90
2018-08-04T20:56:41.328Z,101526.67
2018-08-04T20:59:09.437Z,101523.28
2018-08-04T21:01:48.284Z,101524.53
2018-08-04T21:04:16.897Z,101524.55
2018-08-04T21:06:45.648Z,101526.31
2018-08-04T21:09:14.081Z,101522.69
2018-08-04T21:11:52.205Z,101524.59
2018-08-04T21:14:22.424Z,101528.53
2018-08-04T21:16:51.780Z,101526.81
2018-08-04T21:19:21.792Z,101532.52
2018-08-04T21:21:50.012Z,101539.64
2018-08-04T21:24:19.660Z,101527.61
2018-08-04T21:26:49.630Z,101524.17
2018-08-04T21:29:18.483Z,101526.62
2018-08-04T21:31:46.604Z,101527.70
2018-08-04T21:34:15.559Z,101523.59
2018-08-04T21:36:44.449Z,101527.72
2018-08-04T21:39:15.311Z,101534.10
2018-08-04T21:41:44.408Z,101531.89
2018-08-04T21:44:12.969Z,101538.27
2018-08-04T21:46:43.664Z,101539.50
2018-08-04T21:49:12.231Z,101540.84
2018-08-04T21:51:41.723Z,101546.34
2018-08-04T21:54:12.653Z,101547.03
2018-08-04T21:56:40.942Z,101547.41
2018-08-04T21:59:10.116Z,101543.29
2018-08-04T22:01:38.665Z,101550.70
2018-08-04T22:04:07.369Z,101550.20
2018-08-04T22:06:43.796Z,101558.64
2018-08-04T22:09:19.507Z,101546.98
2018-08-04T22:11:48.467Z,101549.23
2018-08-04T22:14:17.709Z,101541.87
2018-08-04T22:16:46.709Z,101548.23
2018-08-04T22:19:15.613Z,101538.80
2018-08-04T22:21:44.665Z,101535.37
2018-08-04T22:24:13.672Z,101542.95
2018-08-04T22:26:42.129Z,101538.36
2018-08-04T22:29:11.936Z,101535.61
2018-08-04T22:31:40.508Z,101535.45
2018-08-04T22:34:08.601Z,101542.98
2018-08-04T22:36:37.052Z,101543.86
2018-08-04T22:39:06.300Z,101545.04
2018-08-04T22:41:35.016Z,101546.09
2018-08-04T22:44:03.703Z,101548.67
2018-08-04T22:46:32.147Z,101549.37
2018-08-04T22:49:00.385Z,101539.59
2018-08-04T22:51:29.655Z,101544.73
2018-08-04T22:53:58.525Z,101541.47
2018-08-04T22:56:27.220Z,101547.33
2018-08-04T22:58:55.817Z,101542.70
2018-08-04T23:01:24.112Z,101546.63
2018-08-04T23:03:52.428Z,101541.34
2018-08-04T23:06:21.036Z,101542.34
2018-08-04T23:08:49.738Z,101547.32
2018-08-04T23:11:18.185Z,101549.38
2018-08-04T23:13:46.864Z,101542.69
2018-08-04T23:16:15.337Z,101549.34
2018-08-04T23:18:43.565Z,101550.02
2018-08-04T23:21:11.967Z,101547.95
2018-08-04T23:23:40.368Z,101554.66
2018-08-04T23:26:08.615Z,101555.16
2018-08-04T23:28:36.717Z,101559.44
2018-08-04T23:31:05.161Z,101555.30
2018-08-04T23:33:33.437Z,101561.31
2018-08-04T23:36:01.877Z,101565.23
2018-08-04T23:38:30.332Z,101560.59
2018-08-04T23:40:58.699Z,101558.70
2018-08-04T23:43:27.345Z,101558.51
2018-08-04T23:45:55.557Z,101568.78
2018-08-04T23:48:24.384Z,101571.14
2018-08-04T23:50:52.920Z,101572.34
2018-08-04T23:53:21.661Z,101577.11
2018-08-04T23:55:50.108Z,101576.91
2018-08-04T23:58:18.228Z,101576.88
